Time;durP1;ratioP1;P1;durP2;ratioP2;P2;SDS_P1;SDS_P2;PMS_P1;PMS_P2;Temp;Humidity;BMP_temperature;BMP_pressure;BME280_temperature;BME280_humidity;BME280_pressure;Samples;Min_cycle;Max_cycle;Signal;HPM_P1;HPM_P2
2021/04/01 00:00:58;;;;;;;47.65;24.90;;;;;;;10.64;44.51;101819.91;5017951;28;20112;-66
2021/04/01 00:03:24;;;;;;;57.25;25.67;;;;;;;10.73;44.07;101819.69;5018932;28;20084;-67
2021/04/01 00:05:49;;;;;;;53.58;26.92;;;;;;;10.86;43.84;101825.50;4991179;28;20025;-67
2021/04/01 00:08:15;;;;;;;65.90;27.17;;;;;;;10.85;43.71;101834.22;5003493;28;20041;-69
2021/04/01 00:10:44;;;;;;;47.42;25.40;;;;;;;10.89;43.61;101835.88;5008248;28;20030;-67
2021/04/01 00:13:09;;;;;;;51.78;26.83;;;;;;;10.92;43.56;101842.78;5000879;28;20035;-68
2021/04/01 00:15:39;;;;;;;58.30;27.67;;;;;;;10.96;43.23;101837.41;5017833;28;20376;-67
2021/04/01 00:18:08;;;;;;;51.80;25.75;;;;;;;10.97;43.08;101844.38;5005768;28;20069;-66
2021/04/01 00:20:34;;;;;;;55.00;28.75;;;;;;;11.07;42.86;101849.38;5003097;28;20398;-68
2021/04/01 00:23:00;;;;;;;55.00;27.83;;;;;;;11.02;42.60;101850.34;5003881;28;20041;-66
2021/04/01 00:25:25;;;;;;;59.13;28.77;;;;;;;10.97;41.99;101838.28;4983872;28;20065;-66
2021/04/01 00:27:51;;;;;;;56.90;27.42;;;;;;;11.00;42.20;101839.06;5022003;28;20103;-67
2021/04/01 00:30:16;;;;;;;56.05;28.13;;;;;;;10.97;42.53;101825.19;5004257;28;20528;-66
2021/04/01 00:32:42;;;;;;;58.38;29.65;;;;;;;11.03;42.37;101828.50;5018243;28;20120;-65
2021/04/01 00:35:08;;;;;;;54.65;25.95;;;;;;;11.05;42.51;101836.31;4988236;28;20116;-67
2021/04/01 00:37:34;;;;;;;56.53;27.77;;;;;;;11.11;42.01;101840.53;5002150;28;20584;-66
2021/04/01 00:40:00;;;;;;;54.60;26.83;;;;;;;10.93;42.41;101842.75;5004607;28;20034;-66
2021/04/01 00:42:26;;;;;;;54.33;26.15;;;;;;;11.07;41.56;101841.53;5000989;28;20160;-65
2021/04/01 00:44:51;;;;;;;55.55;27.05;;;;;;;11.11;40.47;101843.16;4991971;28;20096;-65
2021/04/01 00:47:17;;;;;;;58.92;27.80;;;;;;;11.13;39.99;101841.34;4985308;28;20044;-66
2021/04/01 00:49:42;;;;;;;66.43;27.52;;;;;;;11.12;39.32;101831.78;5020132;28;20667;-66
2021/04/01 00:52:09;;;;;;;55.17;27.40;;;;;;;11.22;39.27;101843.72;5000735;28;20125;-66
2021/04/01 00:54:36;;;;;;;56.25;26.02;;;;;;;11.20;38.83;101842.91;5000346;28;20022;-67
2021/04/01 00:57:02;;;;;;;58.28;27.25;;;;;;;11.15;38.46;101840.41;4985743;28;20494;-66
2021/04/01 00:59:29;;;;;;;60.22;28.58;;;;;;;11.07;38.83;101839.75;5019141;28;20057;-66
2021/04/01 01:02:04;;;;;;;55.83;28.65;;;;;;;11.03;39.13;101844.19;5019974;28;20160;-67
2021/04/01 01:04:32;;;;;;;64.15;29.83;;;;;;;10.87;39.97;101849.88;5001974;28;20041;-66
2021/04/01 01:06:58;;;;;;;65.35;31.85;;;;;;;10.84;40.27;101842.97;5006853;28;20045;-65
2021/04/01 01:09:24;;;;;;;66.10;30.17;;;;;;;10.93;40.34;101832.28;4999248;28;20470;-66
2021/04/01 01:11:49;;;;;;;71.47;31.42;;;;;;;11.02;40.28;101832.03;5018199;28;20029;-67
2021/04/01 01:14:15;;;;;;;67.97;33.28;;;;;;;11.02;40.22;101832.03;5016681;28;20072;-66
2021/04/01 01:16:41;;;;;;;69.13;31.40;;;;;;;11.15;40.05;101823.84;5003655;28;20037;-66
2021/04/01 01:19:06;;;;;;;63.58;29.35;;;;;;;11.18;39.58;101831.63;5015827;28;20041;-66
2021/04/01 01:21:32;;;;;;;60.42;30.58;;;;;;;11.20;40.03;101828.06;5017001;28;20060;-66
2021/04/01 01:23:58;;;;;;;64.15;31.42;;;;;;;11.28;39.93;101832.22;4984659;28;20103;-65
2021/04/01 01:26:24;;;;;;;67.38;32.03;;;;;;;11.23;40.23;101830.56;4983823;28;20045;-66
2021/04/01 01:28:50;;;;;;;64.53;31.83;;;;;;;11.32;39.93;101818.16;5006890;28;20083;-68
2021/04/01 01:31:19;;;;;;;64.03;31.20;;;;;;;11.33;39.93;101819.84;5009330;28;20033;-66
2021/04/01 01:33:44;;;;;;;70.90;31.95;;;;;;;11.28;39.98;101825.22;5007016;28;20084;-65
2021/04/01 01:36:12;;;;;;;72.53;31.95;;;;;;;11.32;40.33;101829.47;5002487;28;20608;-66
2021/04/01 01:38:38;;;;;;;64.93;32.10;;;;;;;11.30;40.08;101820.81;5023404;28;20117;-65
2021/04/01 01:41:05;;;;;;;63.35;31.55;;;;;;;11.31;39.60;101817.28;4990373;28;20363;-67
2021/04/01 01:43:32;;;;;;;71.82;32.95;;;;;;;11.18;39.91;101821.16;5005424;28;20037;-67
2021/04/01 01:45:58;;;;;;;58.17;31.27;;;;;;;11.23;40.02;101821.88;5020616;28;20400;-66
2021/04/01 01:48:23;;;;;;;63.15;30.80;;;;;;;11.14;40.00;101822.13;5021500;28;20029;-67
2021/04/01 01:50:49;;;;;;;69.50;33.22;;;;;;;11.18;40.13;101815.91;5013558;28;20037;-67
2021/04/01 01:53:14;;;;;;;70.95;33.17;;;;;;;11.23;39.70;101816.66;5022270;28;20049;-67
2021/04/01 01:55:41;;;;;;;68.55;30.42;;;;;;;11.20;40.08;101820.22;5008174;28;20560;-66
2021/04/01 01:58:07;;;;;;;70.40;33.53;;;;;;;11.12;39.85;101819.56;5023326;28;20061;-67
2021/04/01 02:00:47;;;;;;;70.40;33.13;;;;;;;11.08;40.29;101815.28;5005424;28;20040;-67
2021/04/01 02:03:13;;;;;;;72.05;32.42;;;;;;;11.01;40.50;101808.53;5001086;28;20678;-66
2021/04/01 02:05:40;;;;;;;65.13;32.88;;;;;;;11.02;40.17;101816.34;4986712;28;20087;-66
2021/04/01 02:08:07;;;;;;;71.28;33.13;;;;;;;10.86;40.83;101815.03;5010209;28;20029;-66
2021/04/01 02:10:44;;;;;;;69.00;32.30;;;;;;;10.81;40.65;101819.47;5007943;28;20029;-66
2021/04/01 02:13:11;;;;;;;66.75;32.35;;;;;;;10.89;40.22;101814.09;4988709;28;20132;-66
2021/04/01 02:15:38;;;;;;;66.35;32.08;;;;;;;10.92;40.31;101812.25;5000102;28;20052;-66
2021/04/01 02:18:06;;;;;;;65.60;30.85;;;;;;;11.08;39.50;101809.22;5000850;28;20049;-67
2021/04/01 02:20:39;;;;;;;66.05;31.95;;;;;;;11.18;39.66;101806.31;5018728;28;20544;-67
2021/04/01 02:23:10;;;;;;;71.10;32.83;;;;;;;11.18;39.33;101810.69;5021905;28;20037;-67
2021/04/01 02:25:37;;;;;;;71.80;33.58;;;;;;;10.97;39.60;101826.06;5019770;28;20041;-68
2021/04/01 02:28:03;;;;;;;73.95;34.40;;;;;;;10.82;39.79;101821.25;5009205;28;20033;-66
2021/04/01 02:30:29;;;;;;;67.38;33.58;;;;;;;10.86;39.47;101825.50;5020859;28;20451;-66
2021/04/01 02:32:54;;;;;;;71.45;32.47;;;;;;;10.80;39.37;101816.00;5003731;28;20029;-66
2021/04/01 02:35:20;;;;;;;78.55;35.08;;;;;;;10.70;39.51;101814.50;5001596;28;20140;-66
2021/04/01 02:37:45;;;;;;;65.78;31.65;;;;;;;10.49;39.86;101818.53;5022394;28;20040;-67
2021/04/01 02:40:12;;;;;;;79.88;35.08;;;;;;;10.31;39.40;101824.22;4991362;28;20033;-66
2021/04/01 02:42:37;;;;;;;77.65;36.63;;;;;;;9.80;39.80;101827.97;4992571;28;20068;-66
2021/04/01 02:45:03;;;;;;;85.07;36.53;;;;;;;10.10;39.85;101829.06;5005806;28;20437;-67
2021/04/01 02:47:29;;;;;;;93.40;38.50;;;;;;;9.88;40.42;101826.06;5003390;28;20091;-66
2021/04/01 02:49:54;;;;;;;96.93;40.72;;;;;;;9.71;40.92;101823.75;5005328;28;20053;-66
2021/04/01 02:52:20;;;;;;;95.35;39.83;;;;;;;9.47;41.09;101826.88;5002075;28;20040;-66
2021/04/01 02:54:45;;;;;;;92.85;38.85;;;;;;;9.49;41.23;101819.88;5023323;28;20167;-66
2021/04/01 02:57:18;;;;;;;88.13;39.50;;;;;;;9.45;41.41;101820.84;5003317;28;20083;-67
2021/04/01 02:59:45;;;;;;;94.53;40.83;;;;;;;9.14;42.07;101826.63;5021709;28;20084;-66
2021/04/01 03:02:12;;;;;;;100.22;41.35;;;;;;;9.03;42.54;101837.28;5018864;28;20061;-65
2021/04/01 03:04:38;;;;;;;102.53;40.92;;;;;;;8.66;43.33;101845.69;5020074;28;20029;-66
2021/04/01 03:07:05;;;;;;;104.32;44.35;;;;;;;8.95;43.21;101845.22;5000159;28;20037;-66
2021/04/01 03:09:30;;;;;;;106.07;43.13;;;;;;;8.84;43.51;101839.34;5020601;28;20037;-67
2021/04/01 03:11:56;;;;;;;100.22;42.03;;;;;;;8.66;44.39;101847.47;4992678;28;20041;-65
2021/04/01 03:14:21;;;;;;;114.15;45.33;;;;;;;8.39;45.04;101849.63;5016790;28;20033;-66
2021/04/01 03:16:47;;;;;;;101.45;46.03;;;;;;;8.31;45.24;101841.03;5007939;28;20021;-66
2021/04/01 03:19:12;;;;;;;108.65;45.28;;;;;;;8.41;45.02;101827.00;5017691;28;20101;-67
2021/04/01 03:21:38;;;;;;;112.32;46.25;;;;;;;8.14;45.86;101833.50;5021950;28;20076;-67
2021/04/01 03:24:04;;;;;;;111.43;48.17;;;;;;;8.22;45.65;101833.38;4989283;28;20061;-67
2021/04/01 03:26:30;;;;;;;120.97;48.53;;;;;;;8.03;46.41;101831.03;5018892;28;20580;-67
2021/04/01 03:28:56;;;;;;;112.03;46.65;;;;;;;8.16;46.38;101821.31;5006633;28;20087;-67
2021/04/01 03:31:22;;;;;;;116.18;47.65;;;;;;;8.04;46.40;101826.69;5002040;28;20037;-66
2021/04/01 03:33:48;;;;;;;103.13;46.85;;;;;;;7.94;46.85;101828.56;5002711;28;20392;-66
2021/04/01 03:36:13;;;;;;;110.78;45.60;;;;;;;7.97;46.82;101809.44;5018054;28;20081;-67
2021/04/01 03:38:39;;;;;;;107.32;45.33;;;;;;;7.95;46.64;101822.47;4989583;28;20034;-67
2021/04/01 03:41:05;;;;;;;104.30;45.30;;;;;;;8.06;46.17;101830.97;5020615;28;20068;-65
2021/04/01 03:43:30;;;;;;;116.65;48.40;;;;;;;7.94;46.71;101831.19;5021616;28;20069;-66
2021/04/01 03:45:56;;;;;;;115.05;47.35;;;;;;;8.00;46.23;101836.28;5004310;28;20075;-66
2021/04/01 03:48:22;;;;;;;111.60;47.58;;;;;;;7.39;48.23;101843.06;5019358;28;20116;-67
2021/04/01 03:50:47;;;;;;;109.20;46.80;;;;;;;7.51;48.21;101847.28;5020657;28;20036;-67
2021/04/01 03:53:13;;;;;;;101.45;46.70;;;;;;;7.29;48.67;101855.34;5021395;28;20768;-67
2021/04/01 03:55:42;;;;;;;110.03;46.83;;;;;;;7.41;48.34;101846.53;5018013;28;20116;-66
2021/04/01 04:00:54;;;;;;;109.43;47.30;;;;;;;7.25;48.84;101853.63;5020619;28;20100;-66
2021/04/01 04:09:06;;;;;;;102.53;43.67;;;;;;;6.84;50.41;101870.50;4998413;28;20280;-66
2021/04/01 04:14:25;;;;;;;85.65;36.78;;;;;;;6.34;52.13;101870.84;5019379;28;20030;-67
2021/04/01 04:16:51;;;;;;;80.43;35.78;;;;;;;6.26;52.08;101881.25;5018430;28;20067;-67
2021/04/01 04:19:16;;;;;;;73.43;29.58;;;;;;;6.14;52.59;101881.31;5012301;28;20045;-66
2021/04/01 04:21:42;;;;;;;69.07;26.95;;;;;;;6.38;51.68;101873.44;4990666;28;20034;-66
2021/04/01 04:24:10;;;;;;;60.53;24.98;;;;;;;6.60;50.39;101868.94;4997618;28;20041;-67
2021/04/01 04:26:36;;;;;;;54.13;23.35;;;;;;;6.55;50.05;101857.75;4990429;28;20033;-66
2021/04/01 04:29:02;;;;;;;40.58;20.30;;;;;;;6.56;49.85;101854.25;4988438;28;20511;-67
2021/04/01 04:31:28;;;;;;;56.03;19.80;;;;;;;6.40;49.93;101852.66;5005353;28;20038;-67
2021/04/01 04:33:53;;;;;;;51.03;19.67;;;;;;;6.76;49.10;101856.69;5019289;28;20166;-67
2021/04/01 04:36:18;;;;;;;48.60;18.77;;;;;;;6.46;49.60;101871.66;5002562;28;20041;-67
2021/04/01 04:38:44;;;;;;;36.67;16.83;;;;;;;6.46;49.67;101874.25;5022025;28;20512;-66
2021/04/01 04:41:09;;;;;;;37.67;15.80;;;;;;;6.64;49.01;101860.25;5022924;28;20109;-67
2021/04/01 04:43:35;;;;;;;40.80;17.10;;;;;;;6.20;50.22;101871.78;5002970;28;20124;-66
2021/04/01 04:46:01;;;;;;;43.83;16.02;;;;;;;6.61;48.47;101882.78;5021543;28;20244;-67
2021/04/01 04:48:27;;;;;;;28.30;11.13;;;;;;;6.12;50.06;101896.91;5004174;28;20033;-68
2021/04/01 04:50:53;;;;;;;32.17;12.35;;;;;;;6.28;49.08;101889.91;5019707;28;20087;-66
2021/04/01 04:53:18;;;;;;;27.00;11.30;;;;;;;6.11;49.55;101907.31;5020805;28;20041;-66
2021/04/01 04:56:03;;;;;;;17.13;6.10;;;;;;;5.67;50.47;101910.03;5002032;28;20026;-67
2021/04/01 04:58:51;;;;;;;10.05;3.90;;;;;;;5.53;50.93;101918.75;4989244;28;20109;-66
2021/04/01 05:09:00;;;;;;;15.57;2.95;;;;;;;5.21;52.16;101917.06;5020366;28;20054;-67
2021/04/01 05:11:26;;;;;;;27.67;4.30;;;;;;;5.25;52.01;101914.44;5023809;28;20068;-69
2021/04/01 05:13:51;;;;;;;14.48;2.75;;;;;;;5.46;50.93;101923.94;5024433;28;20069;-69
2021/04/01 05:16:17;;;;;;;7.55;2.55;;;;;;;5.90;50.20;101932.47;5001172;28;20048;-68
2021/04/01 05:18:43;;;;;;;18.13;2.20;;;;;;;5.65;50.34;101935.13;5027945;28;20040;-68
2021/04/01 05:21:12;;;;;;;11.70;2.83;;;;;;;5.69;50.32;101946.38;5026384;28;20134;-68
2021/04/01 05:23:43;;;;;;;14.55;2.58;;;;;;;5.55;50.94;101946.41;5027530;28;20041;-68
2021/04/01 05:28:42;;;;;;;19.43;2.07;;;;;;;5.80;50.31;101959.31;5026149;28;20030;-68
2021/04/01 05:31:10;;;;;;;17.90;2.75;;;;;;;5.63;50.78;101957.59;5020060;28;20308;-68
2021/04/01 05:33:38;;;;;;;17.77;2.15;;;;;;;5.59;50.74;101966.28;5007249;28;20110;-66
2021/04/01 05:36:11;;;;;;;10.02;0.90;;;;;;;5.77;50.50;101969.69;5024636;28;20037;-66
2021/04/01 05:38:38;;;;;;;11.02;1.05;;;;;;;5.41;51.34;101971.47;5004763;28;20044;-66
2021/04/01 05:41:06;;;;;;;12.68;1.90;;;;;;;5.73;50.97;101976.63;5022335;28;20523;-67
2021/04/01 05:43:37;;;;;;;13.88;0.93;;;;;;;5.88;50.78;101975.72;5018374;28;20037;-66
2021/04/01 05:46:12;;;;;;;14.00;0.90;;;;;;;6.08;50.11;101976.53;5020336;28;20641;-67
2021/04/01 05:48:49;;;;;;;7.53;1.30;;;;;;;5.82;50.57;101989.56;5024047;28;20064;-67
2021/04/01 05:54:41;;;;;;;18.02;1.13;;;;;;;6.05;50.09;101984.31;5020623;28;20041;-67
2021/04/01 06:04:40;;;;;;;11.55;1.90;;;;;;;6.45;49.26;102011.91;5020314;28;20088;-67
2021/04/01 06:07:21;;;;;;;9.02;2.33;;;;;;;6.50;49.03;102017.91;5004119;28;20637;-67
2021/04/01 06:09:50;;;;;;;10.85;2.60;;;;;;;6.30;49.70;102023.19;5020898;28;20037;-67
2021/04/01 06:12:16;;;;;;;13.93;2.97;;;;;;;6.55;48.70;102023.09;5016976;28;20101;-69
2021/04/01 06:14:54;;;;;;;8.68;2.40;;;;;;;6.73;48.33;102025.63;5018459;28;20560;-66
2021/04/01 06:17:24;;;;;;;11.75;2.50;;;;;;;6.76;48.59;102027.34;5013806;28;20033;-66
2021/04/01 06:19:54;;;;;;;17.20;1.50;;;;;;;7.03;47.81;102008.09;5019310;28;20106;-69
2021/04/01 06:22:21;;;;;;;17.73;1.75;;;;;;;7.07;47.83;102022.81;5021860;28;20448;-67
2021/04/01 06:24:49;;;;;;;13.23;1.50;;;;;;;7.05;47.79;102020.22;5014047;28;20040;-70
2021/04/01 06:27:27;;;;;;;11.45;1.05;;;;;;;6.81;48.70;102039.41;5013961;28;20048;-69
2021/04/01 06:33:03;;;;;;;21.42;1.35;;;;;;;7.54;47.31;102024.16;5010684;28;20063;-67
2021/04/01 06:41:12;;;;;;;15.40;1.60;;;;;;;9.29;43.22;102029.00;4998239;28;20034;-67
2021/04/01 06:43:55;;;;;;;16.23;1.52;;;;;;;7.86;46.81;102038.63;4981519;28;20045;-67
2021/04/01 06:46:24;;;;;;;15.80;2.15;;;;;;;7.94;46.82;102036.84;5018121;28;20026;-67
2021/04/01 07:02:34;;;;;;;9.13;2.47;;;;;;;6.33;52.22;102075.13;5017634;28;20045;-66
2021/04/01 07:04:55;;;;;;;10.73;2.40;;;;;;;6.16;53.09;102084.66;5015555;28;20108;-67
2021/04/01 07:07:22;;;;;;;9.10;1.92;;;;;;;6.12;52.52;102089.00;5001969;28;20033;-66
2021/04/01 07:10:09;;;;;;;17.65;2.70;;;;;;;6.45;52.07;102089.81;5001239;28;20034;-67
2021/04/01 07:12:39;;;;;;;17.77;1.95;;;;;;;6.44;51.90;102086.34;5018779;28;20038;-65
2021/04/01 07:15:16;;;;;;;7.25;1.58;;;;;;;6.07;52.88;102089.00;5020873;28;20038;-67
2021/04/01 07:17:45;;;;;;;8.55;1.73;;;;;;;6.74;51.67;102087.09;5013454;28;20033;-68
2021/04/01 07:20:47;;;;;;;17.05;2.97;;;;;;;7.00;50.61;102081.78;4985782;28;20037;-67
2021/04/01 07:34:43;;;;;;;12.45;1.02;;;;;;;7.20;49.31;102104.16;5021861;28;20053;-66
2021/04/01 07:48:47;;;;;;;12.57;1.33;;;;;;;10.58;41.20;102105.03;5002680;28;20069;-66
2021/04/01 07:54:14;;;;;;;6.72;1.13;;;;;;;9.13;43.81;102114.44;5014954;28;20042;-67
2021/04/01 07:57:00;;;;;;;14.05;1.05;;;;;;;9.18;44.25;102120.44;5024998;28;20665;-68
2021/04/01 07:59:32;;;;;;;9.77;1.33;;;;;;;8.62;44.98;102132.47;5001938;28;20030;-68
2021/04/01 08:04:42;;;;;;;8.10;0.65;;;;;;;7.96;46.60;102141.81;5025323;28;20022;-67
2021/04/01 08:07:10;;;;;;;5.35;1.00;;;;;;;7.87;47.58;102132.34;5018544;28;20030;-67
2021/04/01 08:09:40;;;;;;;8.30;1.15;;;;;;;8.00;46.62;102138.28;5004274;28;20600;-67
2021/04/01 08:12:19;;;;;;;11.98;2.00;;;;;;;8.29;45.49;102137.16;4982859;28;20112;-67
2021/04/01 08:14:53;;;;;;;6.95;0.60;;;;;;;7.49;47.05;102133.47;5020062;28;20593;-67
2021/04/01 08:17:24;;;;;;;8.55;1.15;;;;;;;7.49;46.74;102145.63;5001505;28;20041;-68
2021/04/01 08:19:52;;;;;;;11.13;1.37;;;;;;;7.32;47.75;102149.19;4999146;28;20568;-67
2021/04/01 08:22:23;;;;;;;11.18;0.43;;;;;;;7.30;46.97;102150.91;5011990;28;20037;-67
2021/04/01 08:24:57;;;;;;;7.10;1.38;;;;;;;7.42;47.71;102152.59;5015802;28;20041;-66
2021/04/01 08:27:42;;;;;;;5.95;0.90;;;;;;;8.08;46.08;102154.72;5001965;28;20025;-67
2021/04/01 08:35:34;;;;;;;7.75;0.95;;;;;;;7.00;47.81;102172.75;5021620;28;20029;-67
2021/04/01 08:38:12;;;;;;;9.80;2.25;;;;;;;7.35;47.11;102169.09;5021072;28;20076;-67
2021/04/01 08:40:43;;;;;;;10.10;1.27;;;;;;;7.89;46.02;102176.56;5002050;28;20100;-67
2021/04/01 08:43:35;;;;;;;11.73;0.75;;;;;;;7.31;46.28;102186.47;5007199;28;20034;-67
2021/04/01 08:46:16;;;;;;;;;;;;;;;7.50;46.27;102181.16;5007658;28;20029;-67
2021/04/01 08:49:03;;;;;;;5.22;0.90;;;;;;;7.23;46.81;102193.44;5019557;28;20607;-66
2021/04/01 08:52:01;;;;;;;18.60;1.48;;;;;;;7.49;46.07;102192.44;5021995;28;20060;-69
2021/04/01 08:54:47;;;;;;;18.80;2.10;;;;;;;7.38;46.50;102194.22;4999794;28;20038;-67
2021/04/01 08:57:30;;;;;;;12.32;1.38;;;;;;;7.81;45.36;102204.41;5015448;28;20577;-68
2021/04/01 09:00:01;;;;;;;6.30;0.80;;;;;;;8.10;44.29;102194.63;5021493;28;20115;-66
2021/04/01 09:02:28;;;;;;;14.80;0.75;;;;;;;7.73;44.80;102209.66;4989242;28;20048;-67
2021/04/01 09:04:58;;;;;;;8.75;1.42;;;;;;;7.30;45.95;102218.53;5019689;28;20063;-67
2021/04/01 09:07:41;;;;;;;8.80;1.02;;;;;;;8.53;43.05;102209.84;5019347;28;20128;-69
2021/04/01 09:10:15;;;;;;;13.30;1.38;;;;;;;8.67;42.75;102216.66;5022703;28;20075;-68
2021/04/01 09:12:45;;;;;;;8.65;1.38;;;;;;;8.63;42.94;102217.56;5020259;28;20026;-67
2021/04/01 09:15:24;;;;;;;7.88;1.55;;;;;;;8.51;43.17;102218.56;5004594;28;20148;-66
2021/04/01 09:17:50;;;;;;;17.42;2.28;;;;;;;7.62;45.04;102227.06;5017248;28;20029;-69
2021/04/01 09:20:20;;;;;;;12.48;1.85;;;;;;;8.01;44.91;102232.91;5020307;28;20041;-68
2021/04/01 09:22:51;;;;;;;11.13;1.90;;;;;;;7.71;45.52;102229.63;5002032;28;20044;-66
2021/04/01 09:25:18;;;;;;;9.32;1.25;;;;;;;7.68;44.69;102233.09;4999332;28;20033;-66
2021/04/01 09:28:05;;;;;;;15.93;2.05;;;;;;;7.22;45.91;102246.34;5019561;28;20092;-67
2021/04/01 09:30:31;;;;;;;14.90;1.48;;;;;;;7.00;46.33;102244.66;5017917;28;20037;-66
2021/04/01 09:33:02;;;;;;;15.43;1.63;;;;;;;6.71;47.21;102250.81;5004313;28;20076;-66
2021/04/01 09:35:29;;;;;;;18.55;1.70;;;;;;;7.02;46.37;102255.91;5001496;28;20053;-69
2021/04/01 09:38:01;;;;;;;8.95;1.17;;;;;;;6.75;46.63;102260.31;5000993;28;20040;-68
2021/04/01 09:40:32;;;;;;;15.00;1.58;;;;;;;7.16;45.23;102256.75;5001439;28;20116;-69
2021/04/01 09:43:17;;;;;;;16.27;1.05;;;;;;;7.09;45.22;102260.25;5004583;28;23096;-69
2021/04/01 09:45:44;;;;;;;8.52;1.23;;;;;;;6.77;45.45;102247.31;5016336;28;20025;-67
2021/04/01 09:48:12;;;;;;;17.45;1.88;;;;;;;6.95;45.70;102264.59;5002074;28;20655;-67
2021/04/01 09:50:44;;;;;;;8.27;1.58;;;;;;;7.50;43.76;102270.47;5019742;28;20037;-65
2021/04/01 09:53:17;;;;;;;7.68;1.42;;;;;;;6.59;45.12;102275.06;5016108;28;20339;-70
2021/04/01 09:55:46;;;;;;;16.23;1.00;;;;;;;7.24;44.00;102280.97;5016847;28;20408;-69
2021/04/01 09:58:23;;;;;;;9.05;1.17;;;;;;;7.00;44.53;102274.13;5004445;28;20041;-66
2021/04/01 10:03:34;;;;;;;10.50;1.08;;;;;;;6.64;45.71;102285.44;4999194;28;20100;-66
2021/04/01 10:05:59;;;;;;;24.20;2.00;;;;;;;6.52;45.95;102286.31;5004486;28;20056;-68
2021/04/01 10:08:26;;;;;;;6.47;1.33;;;;;;;7.06;45.01;102292.28;4999568;28;20029;-67
2021/04/01 10:11:01;;;;;;;11.27;1.13;;;;;;;6.25;45.70;102289.75;5022075;28;20030;-67
2021/04/01 10:13:28;;;;;;;6.65;1.17;;;;;;;6.61;45.08;102288.06;5008528;28;20055;-67
2021/04/01 10:15:56;;;;;;;3.83;0.80;;;;;;;6.73;44.28;102281.97;5018990;28;20043;-66
2021/04/01 10:18:29;;;;;;;9.10;0.82;;;;;;;6.38;45.64;102296.72;5003417;28;20111;-67
2021/04/01 10:21:09;;;;;;;9.30;1.27;;;;;;;7.06;44.02;102287.09;5020039;28;20033;-67
2021/04/01 10:23:46;;;;;;;10.45;0.68;;;;;;;6.93;44.05;102281.94;4986830;28;20033;-67
2021/04/01 10:26:13;;;;;;;10.82;2.65;;;;;;;6.15;45.42;102290.59;5019846;28;20515;-68
2021/04/01 10:29:05;;;;;;;5.05;0.68;;;;;;;7.14;43.97;102301.84;5005637;28;20471;-69
2021/04/01 10:31:41;;;;;;;13.97;1.13;;;;;;;7.33;42.71;102290.47;5019731;28;20529;-67
2021/04/01 10:34:21;;;;;;;10.35;1.30;;;;;;;6.80;43.67;102300.16;5017755;28;20308;-68
2021/04/01 10:36:48;;;;;;;6.35;0.75;;;;;;;6.87;44.36;102296.69;4984634;28;20034;-69
2021/04/01 10:39:17;;;;;;;7.65;0.70;;;;;;;6.42;45.39;102297.59;5016231;28;20049;-68
2021/04/01 10:41:51;;;;;;;13.27;1.15;;;;;;;7.14;44.00;102305.28;5018635;28;20026;-67
2021/04/01 10:44:19;;;;;;;6.78;1.42;;;;;;;6.69;44.18;102304.50;5013428;28;20038;-68
2021/04/01 10:46:54;;;;;;;10.82;1.42;;;;;;;6.13;46.60;102307.91;4999619;28;20045;-68
2021/04/01 10:49:26;;;;;;;4.22;1.17;;;;;;;6.48;46.41;102314.06;5014878;28;20112;-67
2021/04/01 10:51:55;;;;;;;;;;;;;;;6.60;46.80;102307.13;4987827;28;20045;-67
2021/04/01 10:54:22;;;;;;;11.45;0.52;;;;;;;5.54;49.85;102312.06;5015846;28;20397;-68
2021/04/01 10:56:52;;;;;;;7.10;0.95;;;;;;;6.46;47.12;102313.19;5019313;28;20041;-67
2021/04/01 10:59:42;;;;;;;6.40;0.95;;;;;;;6.76;45.61;102319.22;5022038;28;20041;-67
2021/04/01 11:02:14;;;;;;;2.53;0.43;;;;;;;6.28;46.86;102308.84;5002683;28;20040;-66
2021/04/01 11:04:41;;;;;;;;;;;;;;;6.37;46.71;102315.75;5001020;28;20025;-67
2021/04/01 11:07:09;;;;;;;5.00;0.47;;;;;;;6.42;46.55;102308.00;5018419;28;19917;-66
2021/04/01 11:09:35;;;;;;;10.40;1.58;;;;;;;6.61;46.07;102311.44;5009160;28;20034;-68
2021/04/01 11:14:31;;;;;;;4.75;0.90;;;;;;;6.56;46.08;102316.63;5016242;28;20052;-66
2021/04/01 11:16:59;;;;;;;5.55;0.80;;;;;;;6.56;46.23;102321.84;5004201;28;20067;-65
2021/04/01 11:19:27;;;;;;;8.10;1.25;;;;;;;5.97;47.78;102325.19;5004617;28;20029;-67
2021/04/01 11:21:54;;;;;;;4.28;0.57;;;;;;;6.19;47.78;102323.50;5020728;28;20036;-67
2021/04/01 11:24:34;;;;;;;4.97;0.70;;;;;;;6.02;48.25;102331.28;5000907;28;20104;-67
2021/04/01 11:27:14;;;;;;;6.60;1.15;;;;;;;6.31;47.93;102330.47;4999844;28;20041;-66
2021/04/01 11:30:01;;;;;;;9.98;1.70;;;;;;;5.66;48.40;102327.69;5003528;28;20175;-67
2021/04/01 11:32:32;;;;;;;6.57;0.98;;;;;;;5.97;48.55;102338.16;5046328;28;20374;-66
2021/04/01 11:35:00;;;;;;;10.13;0.85;;;;;;;6.25;47.26;102336.50;5021363;28;20375;-67
2021/04/01 11:37:31;;;;;;;6.45;1.23;;;;;;;6.19;48.11;102339.06;5019235;28;20411;-67
2021/04/01 11:40:04;;;;;;;5.43;0.70;;;;;;;6.25;47.61;102341.69;5001169;28;20511;-67
2021/04/01 11:42:30;;;;;;;6.10;1.10;;;;;;;6.24;46.20;102350.34;5000498;28;20034;-66
2021/04/01 11:44:58;;;;;;;4.75;0.30;;;;;;;6.45;46.44;102345.19;5000916;28;20038;-68
2021/04/01 11:47:24;;;;;;;6.55;0.68;;;;;;;5.91;47.61;102345.94;5016456;28;20901;-67
2021/04/01 11:49:51;;;;;;;1.85;0.45;;;;;;;6.44;46.41;102337.41;4998479;28;20101;-67
2021/04/01 11:52:18;;;;;;;3.63;0.20;;;;;;;6.62;46.25;102350.41;5001817;28;20033;-68
2021/04/01 11:54:46;;;;;;;2.53;0.40;;;;;;;7.07;45.15;102332.19;5000929;28;20062;-67
2021/04/01 11:57:32;;;;;;;1.50;0.30;;;;;;;6.77;45.64;102341.72;5000785;28;20037;-67
2021/04/01 12:00:11;;;;;;;3.53;0.85;;;;;;;7.16;44.34;102334.75;5000363;28;20077;-70
2021/04/01 12:05:41;;;;;;;2.90;0.28;;;;;;;6.78;45.34;102327.03;5007372;28;19941;-67
2021/04/01 12:08:07;;;;;;;3.15;0.30;;;;;;;6.90;45.50;102334.81;5001272;28;20038;-68
2021/04/01 12:10:32;;;;;;;5.22;0.63;;;;;;;7.25;44.39;102329.53;4999606;28;20080;-68
2021/04/01 12:12:58;;;;;;;2.30;0.38;;;;;;;7.00;45.70;102339.13;4999666;28;20598;-68
2021/04/01 12:15:38;;;;;;;9.40;0.57;;;;;;;7.29;45.07;102335.59;5001491;28;20038;-69
2021/04/01 12:18:06;;;;;;;1.95;0.20;;;;;;;7.16;44.60;102339.97;4992535;28;20109;-67
2021/04/01 12:20:33;;;;;;;1.02;0.40;;;;;;;7.38;44.12;102345.09;4997484;28;20044;-67
2021/04/01 12:23:09;;;;;;;3.28;0.70;;;;;;;7.20;44.46;102341.69;5000827;28;20444;-67
2021/04/01 12:25:34;;;;;;;3.45;0.40;;;;;;;7.18;44.81;102342.56;4996925;28;20038;-67
2021/04/01 12:28:00;;;;;;;1.88;0.57;;;;;;;6.84;45.62;102347.78;5000978;28;20116;-67
2021/04/01 12:30:31;;;;;;;3.00;0.43;;;;;;;7.21;44.76;102348.59;4999480;28;20463;-68
2021/04/01 12:33:14;;;;;;;2.58;0.35;;;;;;;6.69;46.27;102359.09;5001268;28;20042;-67
2021/04/01 12:36:00;;;;;;;6.30;0.50;;;;;;;6.41;47.18;102356.44;5015314;28;20602;-67
2021/04/01 12:38:39;;;;;;;1.35;0.20;;;;;;;6.15;47.95;102358.09;4996480;28;20042;-67
2021/04/01 12:41:20;;;;;;;1.42;0.35;;;;;;;6.71;46.94;102357.34;4981052;28;20157;-67
2021/04/01 12:43:47;;;;;;;1.67;0.30;;;;;;;6.08;48.36;102360.69;5000767;28;20046;-68
2021/04/01 12:46:13;;;;;;;8.65;1.65;;;;;;;6.25;47.60;102362.47;4987980;28;20026;-67
2021/04/01 12:48:43;;;;;;;3.13;0.25;;;;;;;6.06;48.38;102362.41;4986913;28;20077;-67
2021/04/01 12:51:16;;;;;;;3.60;0.77;;;;;;;6.73;46.82;102363.41;4971357;28;20041;-67
2021/04/01 12:53:42;;;;;;;0.73;0.20;;;;;;;6.69;46.20;102374.66;5016769;28;20038;-67
2021/04/01 12:56:22;;;;;;;1.25;0.70;;;;;;;6.51;45.73;102372.94;4978401;28;20152;-68
2021/04/01 12:58:57;;;;;;;1.38;0.47;;;;;;;6.68;45.72;102371.19;4986135;28;20466;-67
2021/04/01 13:01:47;;;;;;;2.40;0.40;;;;;;;6.72;45.55;102374.66;4986117;28;20049;-67
2021/04/01 13:04:11;;;;;;;3.58;1.38;;;;;;;6.22;46.92;102376.31;4983810;28;20042;-67
2021/04/01 13:11:54;;;;;;;1.17;0.40;;;;;;;6.81;45.79;102379.84;4988179;28;19926;-69
2021/04/01 13:14:22;;;;;;;2.25;0.60;;;;;;;7.66;43.23;102377.97;4986721;28;20564;-67
2021/04/01 13:16:48;;;;;;;1.50;0.40;;;;;;;8.61;40.11;102370.53;4985782;28;20125;-68